sensor_id;sensor_type;location;lat;lon;timestamp;P1;durP1;ratioP1;P2;durP2;ratioP2
12367;SDS011;6248;49.812;6.620;2024-01-30T00:00:15;4.40;;;4.00;;
12367;SDS011;6248;49.812;6.620;2024-01-30T00:02:42;6.57;;;4.97;;
12367;SDS011;6248;49.812;6.620;2024-01-30T00:05:10;5.73;;;4.60;;
12367;SDS011;6248;49.812;6.620;2024-01-30T00:07:38;5.47;;;4.80;;
12367;SDS011;6248;49.812;6.620;2024-01-30T00:10:05;5.57;;;4.60;;
12367;SDS011;6248;49.812;6.620;2024-01-30T00:12:32;5.40;;;4.37;;
12367;SDS011;6248;49.812;6.620;2024-01-30T00:15:00;4.73;;;4.33;;
12367;SDS011;6248;49.812;6.620;2024-01-30T00:17:29;5.07;;;4.57;;
12367;SDS011;6248;49.812;6.620;2024-01-30T00:19:56;6.90;;;4.80;;
12367;SDS011;6248;49.812;6.620;2024-01-30T00:22:23;5.03;;;4.43;;
12367;SDS011;6248;49.812;6.620;2024-01-30T00:24:52;5.27;;;4.47;;
12367;SDS011;6248;49.812;6.620;2024-01-30T00:27:19;4.97;;;4.30;;
12367;SDS011;6248;49.812;6.620;2024-01-30T00:29:46;6.90;;;4.73;;
12367;SDS011;6248;49.812;6.620;2024-01-30T00:32:14;6.20;;;4.60;;
12367;SDS011;6248;49.812;6.620;2024-01-30T00:34:41;6.37;;;4.80;;
12367;SDS011;6248;49.812;6.620;2024-01-30T00:37:08;4.80;;;4.27;;
12367;SDS011;6248;49.812;6.620;2024-01-30T00:39:35;5.30;;;4.80;;
12367;SDS011;6248;49.812;6.620;2024-01-30T00:42:04;5.40;;;4.63;;
12367;SDS011;6248;49.812;6.620;2024-01-30T00:44:31;6.33;;;4.30;;
12367;SDS011;6248;49.812;6.620;2024-01-30T00:47:02;5.17;;;4.67;;
12367;SDS011;6248;49.812;6.620;2024-01-30T00:49:29;6.50;;;4.70;;
12367;SDS011;6248;49.812;6.620;2024-01-30T00:51:56;5.00;;;4.50;;
12367;SDS011;6248;49.812;6.620;2024-01-30T00:54:23;5.70;;;4.77;;
12367;SDS011;6248;49.812;6.620;2024-01-30T00:56:50;6.07;;;4.37;;
12367;SDS011;6248;49.812;6.620;2024-01-30T00:59:19;6.17;;;5.00;;
12367;SDS011;6248;49.812;6.620;2024-01-30T01:01:46;5.37;;;4.60;;
12367;SDS011;6248;49.812;6.620;2024-01-30T01:04:13;4.97;;;4.40;;
12367;SDS011;6248;49.812;6.620;2024-01-30T01:06:40;6.07;;;4.73;;
12367;SDS011;6248;49.812;6.620;2024-01-30T01:09:09;5.83;;;4.83;;
12367;SDS011;6248;49.812;6.620;2024-01-30T01:11:36;5.90;;;5.03;;
12367;SDS011;6248;49.812;6.620;2024-01-30T01:14:04;7.33;;;5.20;;
12367;SDS011;6248;49.812;6.620;2024-01-30T01:16:32;6.40;;;5.20;;
12367;SDS011;6248;49.812;6.620;2024-01-30T01:18:59;6.17;;;5.00;;
12367;SDS011;6248;49.812;6.620;2024-01-30T01:21:27;6.20;;;4.90;;
12367;SDS011;6248;49.812;6.620;2024-01-30T01:23:54;6.20;;;5.23;;
12367;SDS011;6248;49.812;6.620;2024-01-30T01:26:21;7.50;;;5.07;;
12367;SDS011;6248;49.812;6.620;2024-01-30T01:28:48;5.60;;;5.10;;
12367;SDS011;6248;49.812;6.620;2024-01-30T01:31:15;6.57;;;4.90;;
12367;SDS011;6248;49.812;6.620;2024-01-30T01:33:44;7.17;;;5.00;;
12367;SDS011;6248;49.812;6.620;2024-01-30T01:36:11;5.97;;;5.20;;
12367;SDS011;6248;49.812;6.620;2024-01-30T01:38:38;7.23;;;5.27;;
12367;SDS011;6248;49.812;6.620;2024-01-30T01:41:05;5.30;;;4.80;;
12367;SDS011;6248;49.812;6.620;2024-01-30T01:43:32;6.20;;;4.87;;
12367;SDS011;6248;49.812;6.620;2024-01-30T01:45:59;6.37;;;5.47;;
12367;SDS011;6248;49.812;6.620;2024-01-30T01:48:27;6.90;;;5.13;;
12367;SDS011;6248;49.812;6.620;2024-01-30T01:50:55;6.20;;;4.90;;
12367;SDS011;6248;49.812;6.620;2024-01-30T01:53:23;8.17;;;5.53;;
12367;SDS011;6248;49.812;6.620;2024-01-30T01:55:50;6.70;;;5.77;;
12367;SDS011;6248;49.812;6.620;2024-01-30T01:58:18;7.90;;;5.50;;
12367;SDS011;6248;49.812;6.620;2024-01-30T02:00:47;7.00;;;5.10;;
12367;SDS011;6248;49.812;6.620;2024-01-30T02:03:14;6.87;;;5.30;;
12367;SDS011;6248;49.812;6.620;2024-01-30T02:05:42;6.10;;;5.50;;
12367;SDS011;6248;49.812;6.620;2024-01-30T02:08:11;8.53;;;6.00;;
12367;SDS011;6248;49.812;6.620;2024-01-30T02:10:38;7.27;;;5.30;;
12367;SDS011;6248;49.812;6.620;2024-01-30T02:13:05;8.00;;;5.87;;
12367;SDS011;6248;49.812;6.620;2024-01-30T02:15:32;7.33;;;5.70;;
12367;SDS011;6248;49.812;6.620;2024-01-30T02:17:59;6.73;;;5.90;;
12367;SDS011;6248;49.812;6.620;2024-01-30T02:20:26;6.27;;;5.60;;
12367;SDS011;6248;49.812;6.620;2024-01-30T02:22:57;7.77;;;5.50;;
12367;SDS011;6248;49.812;6.620;2024-01-30T02:25:30;7.23;;;5.67;;
12367;SDS011;6248;49.812;6.620;2024-01-30T02:27:57;6.90;;;5.43;;
12367;SDS011;6248;49.812;6.620;2024-01-30T02:30:24;6.93;;;6.00;;
12367;SDS011;6248;49.812;6.620;2024-01-30T02:32:52;5.87;;;5.27;;
12367;SDS011;6248;49.812;6.620;2024-01-30T02:35:19;8.00;;;6.33;;
12367;SDS011;6248;49.812;6.620;2024-01-30T02:37:46;8.53;;;5.87;;
12367;SDS011;6248;49.812;6.620;2024-01-30T02:40:15;7.93;;;5.93;;
12367;SDS011;6248;49.812;6.620;2024-01-30T02:42:42;10.17;;;6.33;;
12367;SDS011;6248;49.812;6.620;2024-01-30T02:45:09;7.93;;;6.20;;
12367;SDS011;6248;49.812;6.620;2024-01-30T02:47:37;7.47;;;6.10;;
12367;SDS011;6248;49.812;6.620;2024-01-30T02:50:04;7.23;;;5.83;;
12367;SDS011;6248;49.812;6.620;2024-01-30T02:52:31;7.97;;;6.67;;
12367;SDS011;6248;49.812;6.620;2024-01-30T02:54:59;11.30;;;6.33;;
12367;SDS011;6248;49.812;6.620;2024-01-30T02:57:28;7.63;;;6.07;;
12367;SDS011;6248;49.812;6.620;2024-01-30T02:59:55;9.67;;;6.87;;
12367;SDS011;6248;49.812;6.620;2024-01-30T03:02:22;8.00;;;6.17;;
12367;SDS011;6248;49.812;6.620;2024-01-30T03:04:49;9.37;;;7.03;;
12367;SDS011;6248;49.812;6.620;2024-01-30T03:07:17;8.67;;;6.30;;
12367;SDS011;6248;49.812;6.620;2024-01-30T03:09:44;8.40;;;6.90;;
12367;SDS011;6248;49.812;6.620;2024-01-30T03:12:11;8.33;;;6.67;;
12367;SDS011;6248;49.812;6.620;2024-01-30T03:14:40;7.13;;;5.97;;
12367;SDS011;6248;49.812;6.620;2024-01-30T03:17:07;8.40;;;6.10;;
12367;SDS011;6248;49.812;6.620;2024-01-30T03:19:34;9.00;;;6.20;;
12367;SDS011;6248;49.812;6.620;2024-01-30T03:22:01;7.43;;;5.83;;
12367;SDS011;6248;49.812;6.620;2024-01-30T03:24:28;8.90;;;6.50;;
12367;SDS011;6248;49.812;6.620;2024-01-30T03:26:55;7.50;;;6.10;;
12367;SDS011;6248;49.812;6.620;2024-01-30T03:29:22;6.13;;;5.50;;
12367;SDS011;6248;49.812;6.620;2024-01-30T03:31:51;7.53;;;5.83;;
12367;SDS011;6248;49.812;6.620;2024-01-30T03:34:18;8.10;;;5.70;;
12367;SDS011;6248;49.812;6.620;2024-01-30T03:36:45;7.77;;;6.13;;
12367;SDS011;6248;49.812;6.620;2024-01-30T03:39:12;8.33;;;6.57;;
12367;SDS011;6248;49.812;6.620;2024-01-30T03:41:41;7.87;;;5.90;;
12367;SDS011;6248;49.812;6.620;2024-01-30T03:44:09;10.13;;;6.60;;
12367;SDS011;6248;49.812;6.620;2024-01-30T03:46:36;8.10;;;6.40;;
12367;SDS011;6248;49.812;6.620;2024-01-30T03:49:05;9.33;;;6.83;;
12367;SDS011;6248;49.812;6.620;2024-01-30T03:51:32;8.93;;;6.70;;
12367;SDS011;6248;49.812;6.620;2024-01-30T03:53:59;9.70;;;6.97;;
12367;SDS011;6248;49.812;6.620;2024-01-30T03:56:26;9.33;;;7.30;;
12367;SDS011;6248;49.812;6.620;2024-01-30T03:58:53;12.70;;;7.87;;
12367;SDS011;6248;49.812;6.620;2024-01-30T04:01:21;9.03;;;7.00;;
12367;SDS011;6248;49.812;6.620;2024-01-30T04:03:48;9.77;;;7.77;;
12367;SDS011;6248;49.812;6.620;2024-01-30T04:06:16;12.20;;;7.90;;
12367;SDS011;6248;49.812;6.620;2024-01-30T04:08:43;10.33;;;7.77;;
12367;SDS011;6248;49.812;6.620;2024-01-30T04:11:10;7.80;;;7.00;;
12367;SDS011;6248;49.812;6.620;2024-01-30T04:13:38;10.50;;;7.70;;
12367;SDS011;6248;49.812;6.620;2024-01-30T04:16:05;9.67;;;7.30;;
12367;SDS011;6248;49.812;6.620;2024-01-30T04:18:33;9.37;;;6.77;;
12367;SDS011;6248;49.812;6.620;2024-01-30T04:21:00;8.37;;;7.27;;
12367;SDS011;6248;49.812;6.620;2024-01-30T04:23:28;10.57;;;7.27;;
12367;SDS011;6248;49.812;6.620;2024-01-30T04:25:55;9.73;;;6.77;;
12367;SDS011;6248;49.812;6.620;2024-01-30T04:28:23;10.30;;;7.10;;
12367;SDS011;6248;49.812;6.620;2024-01-30T04:30:50;9.77;;;7.27;;
12367;SDS011;6248;49.812;6.620;2024-01-30T04:33:17;10.07;;;7.00;;
12367;SDS011;6248;49.812;6.620;2024-01-30T04:35:44;9.90;;;7.27;;
12367;SDS011;6248;49.812;6.620;2024-01-30T04:38:11;10.70;;;7.60;;
12367;SDS011;6248;49.812;6.620;2024-01-30T04:40:40;9.20;;;7.63;;
12367;SDS011;6248;49.812;6.620;2024-01-30T04:43:08;10.57;;;7.70;;
12367;SDS011;6248;49.812;6.620;2024-01-30T04:45:35;11.40;;;7.80;;
12367;SDS011;6248;49.812;6.620;2024-01-30T04:48:02;9.47;;;7.47;;
12367;SDS011;6248;49.812;6.620;2024-01-30T04:50:29;11.20;;;8.03;;
12367;SDS011;6248;49.812;6.620;2024-01-30T04:52:56;12.00;;;7.60;;
12367;SDS011;6248;49.812;6.620;2024-01-30T04:55:23;10.17;;;7.47;;
12367;SDS011;6248;49.812;6.620;2024-01-30T04:57:52;11.77;;;7.27;;
12367;SDS011;6248;49.812;6.620;2024-01-30T05:00:19;9.30;;;7.10;;
12367;SDS011;6248;49.812;6.620;2024-01-30T05:02:46;10.63;;;7.87;;
12367;SDS011;6248;49.812;6.620;2024-01-30T05:05:13;11.27;;;7.37;;
12367;SDS011;6248;49.812;6.620;2024-01-30T05:07:41;11.50;;;7.53;;
12367;SDS011;6248;49.812;6.620;2024-01-30T05:10:09;10.60;;;7.90;;
12367;SDS011;6248;49.812;6.620;2024-01-30T05:12:36;9.93;;;7.90;;
12367;SDS011;6248;49.812;6.620;2024-01-30T05:15:05;11.67;;;7.63;;
12367;SDS011;6248;49.812;6.620;2024-01-30T05:17:32;11.23;;;7.60;;
12367;SDS011;6248;49.812;6.620;2024-01-30T05:19:59;8.83;;;7.60;;
12367;SDS011;6248;49.812;6.620;2024-01-30T05:22:27;15.07;;;11.67;;
12367;SDS011;6248;49.812;6.620;2024-01-30T05:24:54;11.63;;;8.30;;
12367;SDS011;6248;49.812;6.620;2024-01-30T05:27:21;10.83;;;8.03;;
12367;SDS011;6248;49.812;6.620;2024-01-30T05:29:48;9.13;;;7.50;;
12367;SDS011;6248;49.812;6.620;2024-01-30T05:32:17;10.43;;;7.90;;
12367;SDS011;6248;49.812;6.620;2024-01-30T05:34:44;8.87;;;7.33;;
12367;SDS011;6248;49.812;6.620;2024-01-30T05:37:11;9.30;;;6.97;;
12367;SDS011;6248;49.812;6.620;2024-01-30T05:39:42;9.97;;;7.87;;
12367;SDS011;6248;49.812;6.620;2024-01-30T05:42:09;13.33;;;7.63;;
12367;SDS011;6248;49.812;6.620;2024-01-30T05:44:36;8.80;;;7.00;;
12367;SDS011;6248;49.812;6.620;2024-01-30T05:47:03;9.63;;;7.33;;
12367;SDS011;6248;49.812;6.620;2024-01-30T05:49:31;10.40;;;7.63;;
12367;SDS011;6248;49.812;6.620;2024-01-30T05:51:59;12.50;;;7.53;;
12367;SDS011;6248;49.812;6.620;2024-01-30T05:54:26;8.67;;;7.47;;
12367;SDS011;6248;49.812;6.620;2024-01-30T05:56:54;10.60;;;6.90;;
12367;SDS011;6248;49.812;6.620;2024-01-30T05:59:21;10.47;;;7.63;;
12367;SDS011;6248;49.812;6.620;2024-01-30T06:01:48;10.23;;;7.70;;
12367;SDS011;6248;49.812;6.620;2024-01-30T06:04:15;9.13;;;7.50;;
12367;SDS011;6248;49.812;6.620;2024-01-30T06:06:44;9.83;;;7.57;;
12367;SDS011;6248;49.812;6.620;2024-01-30T06:09:11;10.83;;;7.50;;
12367;SDS011;6248;49.812;6.620;2024-01-30T06:11:39;8.53;;;7.07;;
12367;SDS011;6248;49.812;6.620;2024-01-30T06:14:06;9.60;;;7.23;;
12367;SDS011;6248;49.812;6.620;2024-01-30T06:16:33;8.20;;;7.10;;
12367;SDS011;6248;49.812;6.620;2024-01-30T06:19:00;7.77;;;6.60;;
12367;SDS011;6248;49.812;6.620;2024-01-30T06:21:28;10.00;;;7.60;;
12367;SDS011;6248;49.812;6.620;2024-01-30T06:23:57;8.00;;;6.90;;
12367;SDS011;6248;49.812;6.620;2024-01-30T06:26:24;8.20;;;6.90;;
12367;SDS011;6248;49.812;6.620;2024-01-30T06:28:51;8.70;;;6.93;;
12367;SDS011;6248;49.812;6.620;2024-01-30T06:31:18;8.93;;;7.27;;
12367;SDS011;6248;49.812;6.620;2024-01-30T06:33:46;7.67;;;6.60;;
12367;SDS011;6248;49.812;6.620;2024-01-30T06:36:16;11.27;;;7.20;;
12367;SDS011;6248;49.812;6.620;2024-01-30T06:38:45;9.23;;;6.97;;
12367;SDS011;6248;49.812;6.620;2024-01-30T06:41:19;8.27;;;7.23;;
12367;SDS011;6248;49.812;6.620;2024-01-30T06:43:47;9.93;;;7.60;;
12367;SDS011;6248;49.812;6.620;2024-01-30T06:46:14;8.30;;;6.30;;
12367;SDS011;6248;49.812;6.620;2024-01-30T06:48:43;8.60;;;6.97;;
12367;SDS011;6248;49.812;6.620;2024-01-30T06:51:12;9.87;;;7.37;;
12367;SDS011;6248;49.812;6.620;2024-01-30T06:53:41;8.33;;;7.13;;
12367;SDS011;6248;49.812;6.620;2024-01-30T06:56:10;8.50;;;6.77;;
12367;SDS011;6248;49.812;6.620;2024-01-30T06:58:39;11.57;;;6.83;;
12367;SDS011;6248;49.812;6.620;2024-01-30T07:01:07;8.93;;;6.90;;
12367;SDS011;6248;49.812;6.620;2024-01-30T07:03:35;9.77;;;6.40;;
12367;SDS011;6248;49.812;6.620;2024-01-30T07:06:02;9.73;;;6.90;;
12367;SDS011;6248;49.812;6.620;2024-01-30T07:08:30;9.50;;;6.90;;
12367;SDS011;6248;49.812;6.620;2024-01-30T07:10:57;9.77;;;7.13;;
12367;SDS011;6248;49.812;6.620;2024-01-30T07:13:24;10.50;;;7.40;;
12367;SDS011;6248;49.812;6.620;2024-01-30T07:15:53;8.70;;;7.00;;
12367;SDS011;6248;49.812;6.620;2024-01-30T07:18:20;8.13;;;6.60;;
12367;SDS011;6248;49.812;6.620;2024-01-30T07:20:47;8.00;;;6.73;;
12367;SDS011;6248;49.812;6.620;2024-01-30T07:23:15;9.20;;;7.03;;
12367;SDS011;6248;49.812;6.620;2024-01-30T07:25:43;8.60;;;6.53;;
12367;SDS011;6248;49.812;6.620;2024-01-30T07:28:10;8.57;;;7.50;;
12367;SDS011;6248;49.812;6.620;2024-01-30T07:30:38;8.80;;;7.37;;
12367;SDS011;6248;49.812;6.620;2024-01-30T07:33:07;8.60;;;7.10;;
12367;SDS011;6248;49.812;6.620;2024-01-30T07:35:34;7.60;;;6.63;;
12367;SDS011;6248;49.812;6.620;2024-01-30T07:38:01;9.63;;;7.10;;
12367;SDS011;6248;49.812;6.620;2024-01-30T07:40:29;8.57;;;6.80;;
12367;SDS011;6248;49.812;6.620;2024-01-30T07:42:57;9.00;;;6.90;;
12367;SDS011;6248;49.812;6.620;2024-01-30T07:45:24;7.97;;;7.17;;
12367;SDS011;6248;49.812;6.620;2024-01-30T07:47:52;7.83;;;6.77;;
12367;SDS011;6248;49.812;6.620;2024-01-30T07:50:21;10.70;;;7.40;;
12367;SDS011;6248;49.812;6.620;2024-01-30T07:52:48;10.87;;;7.37;;
12367;SDS011;6248;49.812;6.620;2024-01-30T08:01:26;8.03;;;6.90;;
12367;SDS011;6248;49.812;6.620;2024-01-30T08:03:54;9.57;;;7.30;;
12367;SDS011;6248;49.812;6.620;2024-01-30T08:06:23;9.00;;;7.10;;
12367;SDS011;6248;49.812;6.620;2024-01-30T08:08:50;9.90;;;7.90;;
12367;SDS011;6248;49.812;6.620;2024-01-30T08:11:19;10.03;;;7.10;;
12367;SDS011;6248;49.812;6.620;2024-01-30T08:13:50;8.70;;;6.57;;
12367;SDS011;6248;49.812;6.620;2024-01-30T08:16:17;10.60;;;6.93;;
12367;SDS011;6248;49.812;6.620;2024-01-30T08:18:45;8.27;;;6.43;;
12367;SDS011;6248;49.812;6.620;2024-01-30T08:21:12;8.23;;;6.30;;
12367;SDS011;6248;49.812;6.620;2024-01-30T08:23:40;8.37;;;6.77;;
12367;SDS011;6248;49.812;6.620;2024-01-30T08:26:08;7.97;;;6.47;;
12367;SDS011;6248;49.812;6.620;2024-01-30T08:28:35;9.83;;;6.83;;
12367;SDS011;6248;49.812;6.620;2024-01-30T08:31:02;8.00;;;6.40;;
12367;SDS011;6248;49.812;6.620;2024-01-30T08:33:29;9.67;;;6.83;;
12367;SDS011;6248;49.812;6.620;2024-01-30T08:35:56;11.23;;;7.37;;
12367;SDS011;6248;49.812;6.620;2024-01-30T08:38:24;9.73;;;7.30;;
12367;SDS011;6248;49.812;6.620;2024-01-30T08:40:52;8.90;;;6.60;;
12367;SDS011;6248;49.812;6.620;2024-01-30T08:43:19;6.40;;;5.50;;
12367;SDS011;6248;49.812;6.620;2024-01-30T08:45:46;7.40;;;5.60;;
12367;SDS011;6248;49.812;6.620;2024-01-30T08:48:14;9.93;;;6.17;;
12367;SDS011;6248;49.812;6.620;2024-01-30T08:50:42;7.97;;;6.50;;
12367;SDS011;6248;49.812;6.620;2024-01-30T08:53:09;8.27;;;6.57;;
12367;SDS011;6248;49.812;6.620;2024-01-30T08:55:37;9.17;;;6.67;;
12367;SDS011;6248;49.812;6.620;2024-01-30T08:58:06;8.63;;;6.87;;
12367;SDS011;6248;49.812;6.620;2024-01-30T09:00:33;10.43;;;6.57;;
12367;SDS011;6248;49.812;6.620;2024-01-30T09:03:00;8.43;;;7.23;;
12367;SDS011;6248;49.812;6.620;2024-01-30T09:05:27;9.73;;;6.97;;
12367;SDS011;6248;49.812;6.620;2024-01-30T09:07:54;9.00;;;6.77;;
12367;SDS011;6248;49.812;6.620;2024-01-30T09:10:21;8.50;;;6.97;;
12367;SDS011;6248;49.812;6.620;2024-01-30T09:12:49;10.17;;;7.27;;
12367;SDS011;6248;49.812;6.620;2024-01-30T09:15:17;10.53;;;7.70;;
12367;SDS011;6248;49.812;6.620;2024-01-30T09:17:45;8.17;;;6.87;;
12367;SDS011;6248;49.812;6.620;2024-01-30T09:20:12;8.47;;;6.37;;
12367;SDS011;6248;49.812;6.620;2024-01-30T09:22:39;7.83;;;6.13;;
12367;SDS011;6248;49.812;6.620;2024-01-30T09:25:06;8.10;;;5.87;;
12367;SDS011;6248;49.812;6.620;2024-01-30T09:27:36;8.23;;;6.03;;
12367;SDS011;6248;49.812;6.620;2024-01-30T09:30:03;7.87;;;6.10;;
12367;SDS011;6248;49.812;6.620;2024-01-30T09:32:32;7.33;;;5.90;;
12367;SDS011;6248;49.812;6.620;2024-01-30T09:34:59;6.53;;;5.83;;
12367;SDS011;6248;49.812;6.620;2024-01-30T09:37:26;8.93;;;6.40;;
12367;SDS011;6248;49.812;6.620;2024-01-30T09:39:53;8.93;;;7.33;;
12367;SDS011;6248;49.812;6.620;2024-01-30T09:42:21;7.17;;;6.10;;
12367;SDS011;6248;49.812;6.620;2024-01-30T09:44:51;8.83;;;6.50;;
12367;SDS011;6248;49.812;6.620;2024-01-30T09:47:20;7.13;;;6.40;;
12367;SDS011;6248;49.812;6.620;2024-01-30T09:49:49;9.87;;;6.40;;
12367;SDS011;6248;49.812;6.620;2024-01-30T09:52:16;7.63;;;6.50;;
12367;SDS011;6248;49.812;6.620;2024-01-30T09:54:43;7.80;;;6.53;;
12367;SDS011;6248;49.812;6.620;2024-01-30T09:57:11;7.83;;;6.50;;
12367;SDS011;6248;49.812;6.620;2024-01-30T09:59:41;9.77;;;6.90;;
12367;SDS011;6248;49.812;6.620;2024-01-30T10:02:09;8.10;;;6.33;;
12367;SDS011;6248;49.812;6.620;2024-01-30T10:04:36;7.53;;;6.53;;
12367;SDS011;6248;49.812;6.620;2024-01-30T10:07:05;10.23;;;6.30;;
12367;SDS011;6248;49.812;6.620;2024-01-30T10:09:33;9.23;;;6.50;;
12367;SDS011;6248;49.812;6.620;2024-01-30T10:12:01;6.37;;;5.87;;
12367;SDS011;6248;49.812;6.620;2024-01-30T10:14:28;8.60;;;6.80;;
12367;SDS011;6248;49.812;6.620;2024-01-30T10:16:57;6.27;;;5.67;;
12367;SDS011;6248;49.812;6.620;2024-01-30T10:19:24;8.73;;;6.60;;
12367;SDS011;6248;49.812;6.620;2024-01-30T10:21:51;7.90;;;6.07;;
12367;SDS011;6248;49.812;6.620;2024-01-30T10:24:23;7.53;;;5.77;;
12367;SDS011;6248;49.812;6.620;2024-01-30T10:26:50;6.20;;;5.60;;
12367;SDS011;6248;49.812;6.620;2024-01-30T10:29:17;8.60;;;6.30;;
12367;SDS011;6248;49.812;6.620;2024-01-30T10:31:45;7.57;;;6.10;;
12367;SDS011;6248;49.812;6.620;2024-01-30T10:39:32;10.00;;;7.50;;
12367;SDS011;6248;49.812;6.620;2024-01-30T10:42:03;7.90;;;6.77;;
12367;SDS011;6248;49.812;6.620;2024-01-30T10:44:33;7.07;;;5.93;;
12367;SDS011;6248;49.812;6.620;2024-01-30T10:47:03;6.33;;;5.73;;
12367;SDS011;6248;49.812;6.620;2024-01-30T10:49:33;6.50;;;5.90;;
12367;SDS011;6248;49.812;6.620;2024-01-30T10:52:00;7.77;;;6.00;;
12367;SDS011;6248;49.812;6.620;2024-01-30T10:54:28;6.27;;;5.57;;
12367;SDS011;6248;49.812;6.620;2024-01-30T10:56:57;8.43;;;6.33;;
12367;SDS011;6248;49.812;6.620;2024-01-30T10:59:26;6.57;;;5.70;;
12367;SDS011;6248;49.812;6.620;2024-01-30T11:01:56;7.47;;;6.30;;
12367;SDS011;6248;49.812;6.620;2024-01-30T11:04:23;7.60;;;6.50;;
12367;SDS011;6248;49.812;6.620;2024-01-30T11:06:50;7.93;;;6.10;;
12367;SDS011;6248;49.812;6.620;2024-01-30T11:09:19;7.27;;;6.47;;
12367;SDS011;6248;49.812;6.620;2024-01-30T11:11:49;9.10;;;6.97;;
12367;SDS011;6248;49.812;6.620;2024-01-30T11:17:16;6.27;;;5.67;;
12367;SDS011;6248;49.812;6.620;2024-01-30T11:19:43;6.23;;;5.63;;
12367;SDS011;6248;49.812;6.620;2024-01-30T11:22:11;6.93;;;5.67;;
12367;SDS011;6248;49.812;6.620;2024-01-30T11:24:39;6.60;;;5.90;;
12367;SDS011;6248;49.812;6.620;2024-01-30T11:27:08;7.47;;;5.97;;
12367;SDS011;6248;49.812;6.620;2024-01-30T11:29:35;9.07;;;5.93;;
12367;SDS011;6248;49.812;6.620;2024-01-30T11:32:03;7.43;;;5.83;;
12367;SDS011;6248;49.812;6.620;2024-01-30T11:34:35;8.23;;;5.43;;
12367;SDS011;6248;49.812;6.620;2024-01-30T11:37:09;8.23;;;5.47;;
12367;SDS011;6248;49.812;6.620;2024-01-30T11:39:37;6.80;;;5.80;;
12367;SDS011;6248;49.812;6.620;2024-01-30T11:42:06;8.60;;;6.10;;
12367;SDS011;6248;49.812;6.620;2024-01-30T11:44:35;6.90;;;5.27;;
12367;SDS011;6248;49.812;6.620;2024-01-30T11:47:05;6.97;;;5.83;;
12367;SDS011;6248;49.812;6.620;2024-01-30T11:49:37;6.73;;;6.03;;
12367;SDS011;6248;49.812;6.620;2024-01-30T11:52:05;7.07;;;5.77;;
12367;SDS011;6248;49.812;6.620;2024-01-30T11:54:35;7.00;;;6.00;;
12367;SDS011;6248;49.812;6.620;2024-01-30T11:57:02;7.30;;;5.83;;
12367;SDS011;6248;49.812;6.620;2024-01-30T11:59:31;7.10;;;5.60;;
12367;SDS011;6248;49.812;6.620;2024-01-30T12:02:01;7.90;;;5.80;;
12367;SDS011;6248;49.812;6.620;2024-01-30T12:04:31;6.20;;;5.60;;
12367;SDS011;6248;49.812;6.620;2024-01-30T12:07:00;7.20;;;5.60;;
12367;SDS011;6248;49.812;6.620;2024-01-30T12:09:27;8.40;;;5.67;;
12367;SDS011;6248;49.812;6.620;2024-01-30T12:11:54;7.13;;;5.57;;
12367;SDS011;6248;49.812;6.620;2024-01-30T12:14:22;6.40;;;5.80;;
12367;SDS011;6248;49.812;6.620;2024-01-30T12:16:52;8.50;;;6.40;;
12367;SDS011;6248;49.812;6.620;2024-01-30T12:19:22;8.67;;;6.53;;
12367;SDS011;6248;49.812;6.620;2024-01-30T12:21:53;6.27;;;5.67;;
12367;SDS011;6248;49.812;6.620;2024-01-30T12:24:23;6.70;;;6.00;;
12367;SDS011;6248;49.812;6.620;2024-01-30T12:26:50;6.80;;;5.80;;
12367;SDS011;6248;49.812;6.620;2024-01-30T12:29:19;8.30;;;6.03;;
12367;SDS011;6248;49.812;6.620;2024-01-30T12:31:47;6.50;;;5.87;;
12367;SDS011;6248;49.812;6.620;2024-01-30T12:34:15;6.50;;;5.53;;
12367;SDS011;6248;49.812;6.620;2024-01-30T12:36:43;6.30;;;5.70;;
12367;SDS011;6248;49.812;6.620;2024-01-30T12:39:13;6.20;;;5.10;;
12367;SDS011;6248;49.812;6.620;2024-01-30T12:41:55;7.83;;;5.93;;
12367;SDS011;6248;49.812;6.620;2024-01-30T12:44:23;6.23;;;5.63;;
12367;SDS011;6248;49.812;6.620;2024-01-30T12:46:50;6.60;;;5.90;;
12367;SDS011;6248;49.812;6.620;2024-01-30T12:49:17;6.47;;;5.47;;
12367;SDS011;6248;49.812;6.620;2024-01-30T12:51:44;6.93;;;5.00;;
12367;SDS011;6248;49.812;6.620;2024-01-30T12:54:12;7.23;;;5.40;;
12367;SDS011;6248;49.812;6.620;2024-01-30T12:56:39;9.27;;;5.50;;
12367;SDS011;6248;49.812;6.620;2024-01-30T12:59:08;7.10;;;6.13;;
12367;SDS011;6248;49.812;6.620;2024-01-30T13:01:36;6.60;;;5.93;;
12367;SDS011;6248;49.812;6.620;2024-01-30T13:04:04;6.20;;;5.47;;
12367;SDS011;6248;49.812;6.620;2024-01-30T13:06:31;7.97;;;5.33;;
12367;SDS011;6248;49.812;6.620;2024-01-30T13:08:58;7.03;;;5.50;;
12367;SDS011;6248;49.812;6.620;2024-01-30T13:11:26;6.43;;;5.37;;
12367;SDS011;6248;49.812;6.620;2024-01-30T13:13:53;7.43;;;5.37;;
12367;SDS011;6248;49.812;6.620;2024-01-30T13:16:22;6.73;;;5.20;;
12367;SDS011;6248;49.812;6.620;2024-01-30T13:18:49;5.57;;;4.93;;
12367;SDS011;6248;49.812;6.620;2024-01-30T13:21:17;6.93;;;5.33;;
12367;SDS011;6248;49.812;6.620;2024-01-30T13:23:44;6.93;;;5.40;;
12367;SDS011;6248;49.812;6.620;2024-01-30T13:26:11;7.73;;;5.60;;
12367;SDS011;6248;49.812;6.620;2024-01-30T13:28:39;7.80;;;5.33;;
12367;SDS011;6248;49.812;6.620;2024-01-30T13:31:06;6.67;;;5.50;;
12367;SDS011;6248;49.812;6.620;2024-01-30T13:33:35;6.93;;;5.60;;
12367;SDS011;6248;49.812;6.620;2024-01-30T13:36:02;6.67;;;5.47;;
12367;SDS011;6248;49.812;6.620;2024-01-30T13:38:30;8.37;;;5.57;;
12367;SDS011;6248;49.812;6.620;2024-01-30T13:40:58;6.77;;;5.47;;
12367;SDS011;6248;49.812;6.620;2024-01-30T13:43:25;6.77;;;5.63;;
12367;SDS011;6248;49.812;6.620;2024-01-30T13:46:01;6.53;;;5.40;;
12367;SDS011;6248;49.812;6.620;2024-01-30T13:48:32;8.03;;;5.93;;
12367;SDS011;6248;49.812;6.620;2024-01-30T13:51:01;7.00;;;6.00;;
12367;SDS011;6248;49.812;6.620;2024-01-30T13:53:34;8.37;;;5.67;;
12367;SDS011;6248;49.812;6.620;2024-01-30T13:56:02;6.90;;;5.40;;
12367;SDS011;6248;49.812;6.620;2024-01-30T13:58:29;7.33;;;5.53;;
12367;SDS011;6248;49.812;6.620;2024-01-30T14:00:58;6.23;;;5.37;;
12367;SDS011;6248;49.812;6.620;2024-01-30T14:03:26;6.90;;;5.67;;
12367;SDS011;6248;49.812;6.620;2024-01-30T14:05:53;6.20;;;5.50;;
12367;SDS011;6248;49.812;6.620;2024-01-30T14:08:25;7.47;;;5.80;;
12367;SDS011;6248;49.812;6.620;2024-01-30T14:10:55;7.57;;;5.30;;
12367;SDS011;6248;49.812;6.620;2024-01-30T14:13:28;6.27;;;5.57;;
12367;SDS011;6248;49.812;6.620;2024-01-30T14:15:56;5.80;;;5.20;;
12367;SDS011;6248;49.812;6.620;2024-01-30T14:18:23;7.33;;;5.70;;
12367;SDS011;6248;49.812;6.620;2024-01-30T14:21:01;6.93;;;5.73;;
12367;SDS011;6248;49.812;6.620;2024-01-30T14:23:34;6.23;;;5.17;;
12367;SDS011;6248;49.812;6.620;2024-01-30T14:26:07;10.27;;;5.70;;
12367;SDS011;6248;49.812;6.620;2024-01-30T14:28:42;6.53;;;5.80;;
12367;SDS011;6248;49.812;6.620;2024-01-30T14:31:13;6.17;;;5.23;;
12367;SDS011;6248;49.812;6.620;2024-01-30T14:33:44;7.03;;;6.17;;
12367;SDS011;6248;49.812;6.620;2024-01-30T14:36:13;8.83;;;5.73;;
12367;SDS011;6248;49.812;6.620;2024-01-30T14:38:42;7.43;;;5.90;;
12367;SDS011;6248;49.812;6.620;2024-01-30T14:41:15;9.27;;;6.10;;
12367;SDS011;6248;49.812;6.620;2024-01-30T14:43:45;6.50;;;5.33;;
12367;SDS011;6248;49.812;6.620;2024-01-30T14:46:12;7.70;;;5.40;;
12367;SDS011;6248;49.812;6.620;2024-01-30T14:48:42;6.80;;;6.07;;
12367;SDS011;6248;49.812;6.620;2024-01-30T14:51:12;9.07;;;5.77;;
12367;SDS011;6248;49.812;6.620;2024-01-30T14:53:40;6.20;;;5.60;;
12367;SDS011;6248;49.812;6.620;2024-01-30T14:56:12;7.80;;;5.73;;
12367;SDS011;6248;49.812;6.620;2024-01-30T14:58:46;6.10;;;5.50;;
12367;SDS011;6248;49.812;6.620;2024-01-30T15:04:21;8.17;;;6.13;;
12367;SDS011;6248;49.812;6.620;2024-01-30T15:07:41;8.40;;;6.53;;
12367;SDS011;6248;49.812;6.620;2024-01-30T15:10:05;9.63;;;5.57;;
12367;SDS011;6248;49.812;6.620;2024-01-30T15:12:34;7.43;;;5.83;;
12367;SDS011;6248;49.812;6.620;2024-01-30T15:15:02;7.10;;;6.00;;
12367;SDS011;6248;49.812;6.620;2024-01-30T15:17:48;7.67;;;6.27;;
12367;SDS011;6248;49.812;6.620;2024-01-30T15:20:15;7.03;;;5.97;;
12367;SDS011;6248;49.812;6.620;2024-01-30T15:22:43;6.47;;;5.50;;